Barhom II — 5IM534 — position and weather

sailwx.info

Track history (hours):
 
Tides and Currents Weather Stations Pressure Air Temp Water Temp Dewpoint Dewpoint Depression Visibility Wind Speed Wind Dir Waves Ship Positions

Barhom II

Last reported at 2016-Jul-24 22:33 UTC. Time now 2016-Jul-29 00:10 UTC.
Position N 37°03' E 023°39'.

Length 83 m.

Type: Cargo ship. MMSI: 677043400.

Date/timePositionNaut miles runAvg speedWind from/ knotsBaromVisibWave heightAir tempDewpointWater temp
2016-Jul-24 22:33N 37°03' E 023°39'2411.1
2016-Jul-24 20:25N 37°22' E 023°57'911.0
2016-Jul-24 19:33N 37°30' E 024°03'1410.6
2016-Jul-24 18:15N 37°42' E 024°12'710.8
2016-Jul-24 17:33N 37°46' E 024°20'13811.3
2016-Jul-24 05:23N 39°46' E 025°47'1512.1
2016-Jul-24 04:06N 39°60' E 025°56'911.5
2016-Jul-24 03:20N 40°01' E 026°07'  
2016-Jul-17 01:32N 40°47' E 028°55'  
Track history (hours):
 
Tides and Currents Weather Stations Pressure Air Temp Water Temp Dewpoint Dewpoint Depression Visibility Wind Speed Wind Dir Waves Ship Positions

Barhom II

Last reported at 2016-Jul-24 22:33 UTC. Time now 2016-Jul-29 00:10 UTC.
Position N 37°03' E 023°39'.

Length 83 m.

Type: Cargo ship. MMSI: 677043400.

Date/timePositionNaut miles runAvg speedWind from/ knotsBaromVisibWave heightAir tempDewpointWater temp
2016-Jul-24 22:33N 37°03' E 023°39'2411.1
2016-Jul-24 20:25N 37°22' E 023°57'911.0
2016-Jul-24 19:33N 37°30' E 024°03'1410.6
2016-Jul-24 18:15N 37°42' E 024°12'710.8
2016-Jul-24 17:33N 37°46' E 024°20'13811.3
2016-Jul-24 05:23N 39°46' E 025°47'1512.1
2016-Jul-24 04:06N 39°60' E 025°56'911.5
2016-Jul-24 03:20N 40°01' E 026°07'  
2016-Jul-17 01:32N 40°47' E 028°55'  

Dump ship's entire track history